createdAt,value
2018-11-27T00:02:24.278Z,95.20
2018-11-27T00:04:51.988Z,95.30
2018-11-27T00:07:19.608Z,95.30
2018-11-27T00:09:47.245Z,95.20
2018-11-27T00:12:14.839Z,95.30
2018-11-27T00:14:42.474Z,95.20
2018-11-27T00:17:10.058Z,95.10
2018-11-27T00:19:37.730Z,95.00
2018-11-27T00:22:06.026Z,95.20
2018-11-27T00:24:33.612Z,96.10
2018-11-27T00:27:01.820Z,95.30
2018-11-27T00:29:29.395Z,94.90
2018-11-27T00:31:57.057Z,95.10
2018-11-27T00:34:24.685Z,95.20
2018-11-27T00:36:52.323Z,94.90
2018-11-27T00:39:19.938Z,94.90
2018-11-27T00:41:47.580Z,95.20
2018-11-27T00:44:15.156Z,94.70
2018-11-27T00:46:42.719Z,95.10
2018-11-27T00:49:10.270Z,94.60
2018-11-27T00:51:37.868Z,94.60
2018-11-27T00:54:05.494Z,94.80
2018-11-27T00:56:33.025Z,94.70
2018-11-27T00:59:00.669Z,94.80
2018-11-27T01:01:28.267Z,94.90
2018-11-27T01:03:55.930Z,95.00
2018-11-27T01:06:23.558Z,94.70
2018-11-27T01:08:51.176Z,94.80
2018-11-27T01:11:18.779Z,95.40
2018-11-27T01:13:46.322Z,95.40
2018-11-27T01:16:13.907Z,95.30
2018-11-27T01:18:41.439Z,95.30
2018-11-27T01:21:09.045Z,95.60
2018-11-27T01:23:36.675Z,95.90
2018-11-27T01:26:04.429Z,96.10
2018-11-27T01:28:32.025Z,95.70
2018-11-27T01:30:59.587Z,94.90
2018-11-27T01:33:27.195Z,95.30
2018-11-27T01:35:54.742Z,95.40
2018-11-27T01:38:22.369Z,95.60
2018-11-27T01:40:50.001Z,96.10
2018-11-27T01:43:17.582Z,96.20
2018-11-27T01:45:45.213Z,95.90
2018-11-27T01:48:12.811Z,96.30
2018-11-27T01:50:40.410Z,95.90
2018-11-27T01:53:07.930Z,95.40
2018-11-27T01:55:35.538Z,95.60
2018-11-27T01:58:03.174Z,95.50
2018-11-27T02:00:30.852Z,95.10
2018-11-27T02:02:59.666Z,95.40
2018-11-27T02:05:27.741Z,95.40
2018-11-27T02:07:55.525Z,95.00
2018-11-27T02:10:23.234Z,95.00
2018-11-27T02:12:51.965Z,95.40
2018-11-27T02:15:20.721Z,95.10
2018-11-27T02:17:48.316Z,95.00
2018-11-27T02:20:15.994Z,94.90
2018-11-27T02:22:43.589Z,95.30
2018-11-27T02:25:16.505Z,95.20
2018-11-27T02:27:44.162Z,95.70
2018-11-27T02:30:13.395Z,95.40
2018-11-27T02:32:41.085Z,95.20
2018-11-27T02:35:10.420Z,95.20
2018-11-27T02:37:37.990Z,95.20
2018-11-27T02:40:08.046Z,95.00
2018-11-27T02:42:35.645Z,94.80
2018-11-27T02:45:03.695Z,94.70
2018-11-27T02:47:31.313Z,95.10
2018-11-27T02:49:58.917Z,95.10
2018-11-27T02:52:26.481Z,95.60
2018-11-27T02:54:54.100Z,95.20
2018-11-27T02:57:21.656Z,95.00
2018-11-27T02:59:49.207Z,94.80
2018-11-27T03:02:16.746Z,94.80
2018-11-27T03:04:44.397Z,95.20
2018-11-27T03:07:12.007Z,95.20
2018-11-27T03:09:39.597Z,95.30
2018-11-27T03:12:07.213Z,95.10
2018-11-27T03:14:34.820Z,94.80
2018-11-27T03:17:02.428Z,95.40
2018-11-27T03:19:30.020Z,95.30
2018-11-27T03:21:57.638Z,95.00
2018-11-27T03:24:25.192Z,94.60
2018-11-27T03:26:52.769Z,95.10
2018-11-27T03:29:20.380Z,95.00
2018-11-27T03:31:47.920Z,94.80
2018-11-27T03:34:15.496Z,95.00
2018-11-27T03:36:43.130Z,95.10
2018-11-27T03:39:10.753Z,95.10
2018-11-27T03:41:38.435Z,95.00
2018-11-27T03:44:06.119Z,94.70
2018-11-27T03:46:33.716Z,95.10
2018-11-27T03:49:01.255Z,95.20
2018-11-27T03:51:28.890Z,95.10
2018-11-27T03:53:56.476Z,95.30
2018-11-27T03:56:24.071Z,95.10
2018-11-27T03:58:51.617Z,95.40
2018-11-27T04:01:19.139Z,95.40
2018-11-27T04:03:46.729Z,95.20
2018-11-27T04:06:14.277Z,95.10
2018-11-27T04:08:41.868Z,95.20
2018-11-27T04:11:09.596Z,95.50
2018-11-27T04:13:37.193Z,95.40
2018-11-27T04:16:04.814Z,95.50
2018-11-27T04:18:32.448Z,95.60
2018-11-27T04:21:00.060Z,95.50
2018-11-27T04:23:27.614Z,95.60
2018-11-27T04:25:55.200Z,95.20
2018-11-27T04:28:22.829Z,95.70
2018-11-27T04:30:51.191Z,95.40
2018-11-27T04:33:18.052Z,95.00
2018-11-27T04:35:45.685Z,95.00
2018-11-27T04:38:13.306Z,94.70
2018-11-27T04:40:40.962Z,94.70
2018-11-27T04:43:08.613Z,94.90
2018-11-27T04:45:36.247Z,95.00
2018-11-27T04:48:03.843Z,95.10
2018-11-27T04:50:31.464Z,94.50
2018-11-27T04:52:59.035Z,94.50
2018-11-27T04:55:26.624Z,94.70
2018-11-27T04:57:54.206Z,94.80
2018-11-27T05:00:22.963Z,95.00
2018-11-27T05:02:50.551Z,94.90
2018-11-27T05:05:18.279Z,94.90
2018-11-27T05:07:46.576Z,95.00
2018-11-27T05:10:15.500Z,94.90
2018-11-27T05:12:43.376Z,95.40
2018-11-27T05:15:14.838Z,95.60
2018-11-27T05:17:47.840Z,95.50
2018-11-27T05:20:11.192Z,95.60
2018-11-27T05:22:38.831Z,95.60
2018-11-27T05:25:10.710Z,95.40
2018-11-27T05:27:39.082Z,95.40
2018-11-27T05:30:23.625Z,95.20
2018-11-27T05:32:51.240Z,95.10
2018-11-27T05:35:21.975Z,95.20
2018-11-27T05:37:49.976Z,95.10
2018-11-27T05:40:18.764Z,94.80
2018-11-27T05:42:47.291Z,95.70
2018-11-27T05:45:16.301Z,95.40
2018-11-27T05:47:43.958Z,95.00
2018-11-27T05:50:12.629Z,95.40
2018-11-27T05:52:40.280Z,95.40
2018-11-27T05:55:08.954Z,95.70
2018-11-27T05:57:36.697Z,95.70
2018-11-27T06:00:08.962Z,95.30
2018-11-27T06:02:36.837Z,94.80
2018-11-27T06:05:06.067Z,95.20
2018-11-27T06:07:33.675Z,95.20
2018-11-27T06:10:01.361Z,95.20
2018-11-27T06:12:28.996Z,95.20
2018-11-27T06:14:56.614Z,95.10
2018-11-27T06:17:24.161Z,95.00
2018-11-27T06:19:51.807Z,95.50
2018-11-27T06:22:19.487Z,95.40
2018-11-27T06:24:47.122Z,95.10
2018-11-27T06:27:14.743Z,95.20
2018-11-27T06:29:42.367Z,95.20
2018-11-27T06:32:09.953Z,95.50
2018-11-27T06:34:37.594Z,95.70
2018-11-27T06:37:05.362Z,95.40
2018-11-27T06:39:32.963Z,95.40
2018-11-27T06:42:00.598Z,95.40
2018-11-27T06:44:28.216Z,95.10
2018-11-27T06:46:55.777Z,95.70
2018-11-27T06:49:23.406Z,95.90
2018-11-27T06:51:51.064Z,96.00
2018-11-27T06:54:18.685Z,96.10
2018-11-27T06:56:46.328Z,95.70
2018-11-27T06:59:14.004Z,95.80
2018-11-27T07:01:41.624Z,95.80
2018-11-27T07:04:09.296Z,95.80
2018-11-27T07:06:36.895Z,95.70
2018-11-27T07:09:07.774Z,95.70
2018-11-27T07:11:35.668Z,95.40
2018-11-27T07:14:03.286Z,95.80
2018-11-27T07:16:30.848Z,96.00
2018-11-27T07:18:58.460Z,95.80
2018-11-27T07:21:26.070Z,95.90
2018-11-27T07:23:53.720Z,95.70
2018-11-27T07:26:21.345Z,95.80
2018-11-27T07:28:48.843Z,95.70
2018-11-27T07:31:16.460Z,95.70
2018-11-27T07:33:44.031Z,95.30
2018-11-27T07:36:11.647Z,95.20
2018-11-27T07:38:39.310Z,95.30
2018-11-27T07:41:06.929Z,95.30
2018-11-27T07:43:35.125Z,95.60
2018-11-27T07:46:02.767Z,95.50
2018-11-27T07:48:30.387Z,95.50
2018-11-27T07:50:58.050Z,95.30
2018-11-27T07:53:25.694Z,95.40
2018-11-27T07:55:53.245Z,95.50
2018-11-27T07:58:20.817Z,95.40
2018-11-27T08:00:48.415Z,95.70
2018-11-27T08:03:16.026Z,95.10
2018-11-27T08:05:43.583Z,95.30
2018-11-27T08:08:13.616Z,95.40
2018-11-27T08:10:42.138Z,94.80
2018-11-27T08:13:09.940Z,94.70
2018-11-27T08:15:37.529Z,95.20
2018-11-27T08:18:05.295Z,95.30
2018-11-27T08:20:33.627Z,95.10
2018-11-27T08:23:01.262Z,94.60
2018-11-27T08:25:28.896Z,95.00
2018-11-27T08:27:56.499Z,94.90
2018-11-27T08:30:24.235Z,95.20
2018-11-27T08:32:52.689Z,95.10
2018-11-27T08:35:23.439Z,95.20
2018-11-27T08:37:52.081Z,94.40
2018-11-27T08:40:20.892Z,95.30
2018-11-27T08:42:48.486Z,94.80
2018-11-27T08:45:17.203Z,95.10
2018-11-27T08:47:45.558Z,95.10
2018-11-27T08:50:15.332Z,94.80
2018-11-27T08:52:46.637Z,95.10
2018-11-27T08:55:14.037Z,95.20
2018-11-27T08:57:43.119Z,95.10
2018-11-27T09:00:17.852Z,95.20
2018-11-27T09:02:45.570Z,94.70
2018-11-27T09:05:13.478Z,95.30
2018-11-27T09:07:41.552Z,95.30
2018-11-27T09:10:12.460Z,94.60
2018-11-27T09:12:40.129Z,94.70
2018-11-27T09:15:09.687Z,95.10
2018-11-27T09:17:37.318Z,94.50
2018-11-27T09:20:07.694Z,95.10
2018-11-27T09:22:35.312Z,95.00
2018-11-27T09:25:03.299Z,94.40
2018-11-27T09:27:30.931Z,94.50
2018-11-27T09:29:58.553Z,95.20
2018-11-27T09:32:26.181Z,94.40
2018-11-27T09:34:53.823Z,94.80
2018-11-27T09:37:21.486Z,95.00
2018-11-27T09:39:49.041Z,95.90
2018-11-27T09:42:16.617Z,95.50
2018-11-27T09:44:44.220Z,95.00
2018-11-27T09:47:11.779Z,95.30
2018-11-27T09:49:39.406Z,94.60
2018-11-27T09:52:07.092Z,94.30
2018-11-27T09:54:34.688Z,95.10
2018-11-27T09:57:02.277Z,94.60
2018-11-27T09:59:29.867Z,93.90
2018-11-27T10:01:57.469Z,93.80
2018-11-27T10:04:25.079Z,94.30
2018-11-27T10:06:52.708Z,94.40
2018-11-27T10:09:20.321Z,94.00
2018-11-27T10:11:48.012Z,94.10
2018-11-27T10:14:15.653Z,94.40
2018-11-27T10:16:43.264Z,94.40
2018-11-27T10:19:10.880Z,93.50
2018-11-27T10:21:38.495Z,93.40
2018-11-27T10:24:06.141Z,94.10
2018-11-27T10:26:33.754Z,93.50
2018-11-27T10:29:01.355Z,92.90
2018-11-27T10:31:28.961Z,93.00
2018-11-27T10:33:56.549Z,92.90
2018-11-27T10:36:24.193Z,93.50
2018-11-27T10:38:51.773Z,93.10
2018-11-27T10:41:19.297Z,93.90
2018-11-27T10:43:47.681Z,93.50
2018-11-27T10:46:14.585Z,93.20
2018-11-27T10:48:42.238Z,92.90
2018-11-27T10:51:09.855Z,93.40
2018-11-27T10:53:37.436Z,93.20
2018-11-27T10:56:05.999Z,93.40
2018-11-27T10:58:33.626Z,92.90
2018-11-27T11:01:06.737Z,93.30
2018-11-27T11:03:35.097Z,93.80
2018-11-27T11:06:04.379Z,93.60
2018-11-27T11:08:31.944Z,92.70
2018-11-27T11:10:59.601Z,92.30
2018-11-27T11:13:27.219Z,93.50
2018-11-27T11:15:54.813Z,93.00
2018-11-27T11:18:22.418Z,94.50
2018-11-27T11:20:50.014Z,94.30
2018-11-27T11:23:17.605Z,94.10
2018-11-27T11:25:45.268Z,93.40
2018-11-27T11:28:12.841Z,94.20
2018-11-27T11:30:40.419Z,93.20
2018-11-27T11:33:08.456Z,92.90
2018-11-27T11:35:36.099Z,92.70
2018-11-27T11:38:03.901Z,92.70
2018-11-27T11:40:31.504Z,92.70
2018-11-27T11:42:59.123Z,93.20
2018-11-27T11:45:26.755Z,93.60
2018-11-27T11:47:54.386Z,93.60
2018-11-27T11:50:24.084Z,93.70
2018-11-27T11:52:56.144Z,92.70
2018-11-27T11:55:23.714Z,92.50
2018-11-27T11:57:51.326Z,93.90
2018-11-27T12:00:21.637Z,93.60
2018-11-27T12:02:49.323Z,92.80
2018-11-27T12:05:16.909Z,92.20
2018-11-27T12:07:44.572Z,93.20
2018-11-27T12:10:13.325Z,92.10
2018-11-27T12:12:41.615Z,92.10
2018-11-27T12:15:11.609Z,92.40
2018-11-27T12:17:39.730Z,92.40
2018-11-27T12:20:09.380Z,92.40
2018-11-27T12:22:37.007Z,91.50
2018-11-27T12:25:06.582Z,91.30
2018-11-27T12:27:34.175Z,92.20
2018-11-27T12:30:01.851Z,92.10
2018-11-27T12:32:29.531Z,91.60
2018-11-27T12:34:57.203Z,92.20
2018-11-27T12:37:24.819Z,92.80
2018-11-27T12:39:52.483Z,91.50
2018-11-27T12:42:20.110Z,91.80
2018-11-27T12:44:47.695Z,91.50
2018-11-27T12:47:15.319Z,91.40
2018-11-27T12:49:42.985Z,92.10
2018-11-27T12:52:10.641Z,91.40
2018-11-27T12:54:38.311Z,92.10
2018-11-27T12:57:05.961Z,91.80
2018-11-27T12:59:33.631Z,92.20
2018-11-27T13:02:01.290Z,92.40
2018-11-27T13:04:28.919Z,92.70
2018-11-27T13:06:56.559Z,92.30
2018-11-27T13:09:24.096Z,93.40
2018-11-27T13:11:51.679Z,91.80
2018-11-27T13:14:19.292Z,91.50
2018-11-27T13:16:46.896Z,91.30
2018-11-27T13:19:14.495Z,91.30
2018-11-27T13:21:42.056Z,92.50
2018-11-27T13:24:09.599Z,91.90
2018-11-27T13:26:37.227Z,91.90
2018-11-27T13:29:05.484Z,92.50
2018-11-27T13:31:33.128Z,91.90
2018-11-27T13:34:05.289Z,92.70
2018-11-27T13:36:32.872Z,92.20
2018-11-27T13:39:11.963Z,92.40
2018-11-27T13:41:39.656Z,92.50
2018-11-27T13:44:07.244Z,92.60
2018-11-27T13:46:34.894Z,92.40
2018-11-27T13:49:02.548Z,93.00
2018-11-27T13:51:30.142Z,93.10
2018-11-27T13:53:57.763Z,92.40
2018-11-27T13:56:25.334Z,92.60
2018-11-27T14:02:02.906Z,92.70
2018-11-27T14:04:30.755Z,92.00
2018-11-27T14:06:58.359Z,91.90
2018-11-27T14:09:26.022Z,91.40
2018-11-27T14:11:53.615Z,91.60
2018-11-27T14:14:21.267Z,92.20
2018-11-27T14:16:48.913Z,92.10
2018-11-27T14:19:16.535Z,92.90
2018-11-27T14:21:44.126Z,92.60
2018-11-27T14:24:11.699Z,92.40
2018-11-27T14:26:39.299Z,92.00
2018-11-27T14:29:06.935Z,91.30
2018-11-27T14:31:34.596Z,90.90
2018-11-27T14:34:02.451Z,91.30
2018-11-27T14:36:30.026Z,90.40
2018-11-27T14:38:57.645Z,90.70
2018-11-27T14:41:25.200Z,90.90
2018-11-27T14:43:52.826Z,91.30
2018-11-27T14:46:20.415Z,91.20
2018-11-27T14:48:48.023Z,92.20
2018-11-27T14:51:15.631Z,92.70
2018-11-27T14:53:43.244Z,92.90
2018-11-27T14:56:10.873Z,92.50
2018-11-27T15:01:26.795Z,91.00
2018-11-27T15:03:54.412Z,90.20
2018-11-27T15:06:21.977Z,91.20
2018-11-27T15:08:49.569Z,91.10
2018-11-27T15:11:17.195Z,91.60
2018-11-27T15:13:44.763Z,92.60
2018-11-27T15:16:12.431Z,92.00
2018-11-27T15:18:40.108Z,92.10
2018-11-27T15:21:07.739Z,92.20
2018-11-27T15:23:35.443Z,91.50
2018-11-27T15:26:03.070Z,92.50
2018-11-27T15:28:30.685Z,92.10
2018-11-27T15:30:58.279Z,92.20
2018-11-27T15:33:28.260Z,92.50
2018-11-27T15:35:56.180Z,91.80
2018-11-27T15:38:23.723Z,92.40
2018-11-27T15:40:51.344Z,92.20
2018-11-27T15:43:19.151Z,92.40
2018-11-27T15:45:46.724Z,93.00
2018-11-27T15:48:14.336Z,93.10
2018-11-27T15:50:41.911Z,92.90
2018-11-27T15:53:09.502Z,93.20
2018-11-27T15:55:38.358Z,92.90
2018-11-27T15:58:09.281Z,93.00
2018-11-27T16:00:36.952Z,92.60
2018-11-27T16:03:05.163Z,92.40
2018-11-27T16:05:32.819Z,92.80
2018-11-27T16:08:00.508Z,92.60
2018-11-27T16:10:28.069Z,92.60
2018-11-27T16:12:55.710Z,92.10
2018-11-27T16:15:23.355Z,92.50
2018-11-27T16:17:50.965Z,92.10
2018-11-27T16:20:20.765Z,92.10
2018-11-27T16:22:49.479Z,92.30
2018-11-27T16:25:19.105Z,92.10
2018-11-27T16:27:46.648Z,91.90
2018-11-27T16:30:23.249Z,92.10
2018-11-27T16:32:50.839Z,92.50
2018-11-27T16:35:18.499Z,92.90
2018-11-27T16:37:48.474Z,93.50
2018-11-27T16:40:17.268Z,94.20
2018-11-27T16:45:20.322Z,94.00
2018-11-27T16:47:48.054Z,94.40
2018-11-27T16:50:16.390Z,94.40
2018-11-27T16:52:44.215Z,94.20
2018-11-27T16:55:12.938Z,93.90
2018-11-27T16:57:40.596Z,93.50
2018-11-27T17:00:21.506Z,93.90
2018-11-27T17:02:50.436Z,93.70
2018-11-27T17:05:17.718Z,93.90
2018-11-27T17:07:46.185Z,94.40
2018-11-27T17:10:14.779Z,94.10
2018-11-27T17:12:43.015Z,93.80
2018-11-27T17:15:14.584Z,93.70
2018-11-27T17:17:42.142Z,93.60
2018-11-27T17:20:19.067Z,92.80
2018-11-27T17:22:46.677Z,92.90
2018-11-27T17:25:14.307Z,93.20
2018-11-27T17:27:42.036Z,93.30
2018-11-27T17:30:12.840Z,92.70
2018-11-27T17:32:40.458Z,92.40
2018-11-27T17:35:09.660Z,92.80
2018-11-27T17:37:37.218Z,92.80
2018-11-27T17:40:08.103Z,92.90
2018-11-27T17:42:35.698Z,93.50
2018-11-27T17:45:05.216Z,93.70
2018-11-27T17:47:32.764Z,93.60
2018-11-27T17:50:00.423Z,94.00
2018-11-27T17:52:28.022Z,94.00
2018-11-27T17:54:55.637Z,94.20
2018-11-27T17:57:23.219Z,93.90
2018-11-27T17:59:50.845Z,94.00
2018-11-27T18:02:18.383Z,94.30
2018-11-27T18:04:45.999Z,94.10
2018-11-27T18:07:13.626Z,94.40
2018-11-27T18:09:41.206Z,94.60
2018-11-27T18:12:08.854Z,94.10
2018-11-27T18:14:36.400Z,94.10
2018-11-27T18:17:04.047Z,94.20
2018-11-27T18:19:31.605Z,94.10
2018-11-27T18:21:59.257Z,93.70
2018-11-27T18:24:26.855Z,93.90
2018-11-27T18:26:54.478Z,93.20
2018-11-27T18:29:22.114Z,93.60
2018-11-27T18:31:49.712Z,93.80
2018-11-27T18:34:17.331Z,93.70
2018-11-27T18:36:44.933Z,93.90
2018-11-27T18:39:12.510Z,94.00
2018-11-27T18:41:40.131Z,94.10
2018-11-27T18:44:07.751Z,93.80
2018-11-27T18:46:35.402Z,94.00
2018-11-27T18:49:03.006Z,94.00
2018-11-27T18:51:30.604Z,94.60
2018-11-27T18:53:58.186Z,94.40
2018-11-27T18:56:25.767Z,94.40
2018-11-27T18:58:53.343Z,94.70
2018-11-27T19:01:20.887Z,94.60
2018-11-27T19:03:48.502Z,94.80
2018-11-27T19:06:16.133Z,94.50
2018-11-27T19:08:43.714Z,94.60
2018-11-27T19:11:11.301Z,94.60
2018-11-27T19:13:38.856Z,94.50
2018-11-27T19:16:06.887Z,94.20
2018-11-27T19:18:34.529Z,94.00
2018-11-27T19:21:02.043Z,94.00
2018-11-27T19:23:29.663Z,94.10
2018-11-27T19:25:57.337Z,94.50
2018-11-27T19:28:24.930Z,94.70
2018-11-27T19:30:52.565Z,94.60
2018-11-27T19:33:20.172Z,94.80
2018-11-27T19:35:47.844Z,95.10
2018-11-27T19:38:16.862Z,95.20
2018-11-27T19:40:44.478Z,95.20
2018-11-27T19:43:12.108Z,95.10
2018-11-27T19:45:39.766Z,95.10
2018-11-27T19:48:08.341Z,94.90
2018-11-27T19:50:36.453Z,94.60
2018-11-27T19:53:11.676Z,94.50
2018-11-27T19:55:33.402Z,94.50
2018-11-27T19:58:01.046Z,94.40
2018-11-27T20:00:29.164Z,94.40
2018-11-27T20:02:56.851Z,94.50
2018-11-27T20:05:27.773Z,94.70
2018-11-27T20:07:55.453Z,94.70
2018-11-27T20:10:23.063Z,94.60
2018-11-27T20:12:50.766Z,94.70
2018-11-27T20:15:24.141Z,94.60
2018-11-27T20:17:52.317Z,94.90
2018-11-27T20:20:21.104Z,94.60
2018-11-27T20:22:48.879Z,94.30
2018-11-27T20:25:17.857Z,94.20
2018-11-27T20:27:45.551Z,94.30
2018-11-27T20:30:14.410Z,94.90
2018-11-27T20:32:43.433Z,94.70
2018-11-27T20:35:12.249Z,94.50
2018-11-27T20:37:40.028Z,94.90
2018-11-27T20:40:10.410Z,94.80
2018-11-27T20:42:38.025Z,95.30
2018-11-27T20:45:08.206Z,95.50
2018-11-27T20:47:35.893Z,95.30
2018-11-27T20:50:04.203Z,95.10
2018-11-27T20:52:31.811Z,95.10
2018-11-27T20:54:59.453Z,95.20
2018-11-27T20:57:27.080Z,95.50
2018-11-27T20:59:54.691Z,95.30
2018-11-27T21:02:30.639Z,95.00
2018-11-27T21:04:58.350Z,94.90
2018-11-27T21:07:26.082Z,95.10
2018-11-27T21:09:53.695Z,95.10
2018-11-27T21:12:21.269Z,95.20
2018-11-27T21:14:48.924Z,94.90
2018-11-27T21:17:17.138Z,95.00
2018-11-27T21:19:44.835Z,95.20
2018-11-27T21:22:12.489Z,95.00
2018-11-27T21:24:40.164Z,95.10
2018-11-27T21:27:07.863Z,95.10
2018-11-27T21:29:35.534Z,95.20
2018-11-27T21:32:03.193Z,95.40
2018-11-27T21:34:30.855Z,95.30
2018-11-27T21:36:58.502Z,95.30
2018-11-27T21:39:26.104Z,95.30
2018-11-27T21:41:53.761Z,95.50
2018-11-27T21:44:21.471Z,95.30
2018-11-27T21:46:49.151Z,95.00
2018-11-27T21:49:16.803Z,94.80
2018-11-27T21:51:44.372Z,94.80
2018-11-27T21:54:11.997Z,94.80
2018-11-27T21:56:39.579Z,94.60
2018-11-27T21:59:07.231Z,94.50
2018-11-27T22:01:34.827Z,94.40
2018-11-27T22:04:02.418Z,94.50
2018-11-27T22:06:30.078Z,94.50
2018-11-27T22:08:57.721Z,94.50
2018-11-27T22:11:25.349Z,94.40
2018-11-27T22:13:52.929Z,94.30
2018-11-27T22:16:20.525Z,94.40
2018-11-27T22:18:48.200Z,94.40
2018-11-27T22:21:15.790Z,94.40
2018-11-27T22:23:43.430Z,94.40
2018-11-27T22:26:11.046Z,94.70
2018-11-27T22:28:38.641Z,94.90
2018-11-27T22:31:06.469Z,94.90
2018-11-27T22:33:34.085Z,94.90
2018-11-27T22:36:01.706Z,95.00
2018-11-27T22:38:29.290Z,94.90
2018-11-27T22:40:56.894Z,95.00
2018-11-27T22:43:24.598Z,95.20
2018-11-27T22:45:52.210Z,95.30
2018-11-27T22:48:20.128Z,95.20
2018-11-27T22:50:47.507Z,95.30
2018-11-27T22:53:15.118Z,95.40
2018-11-27T22:55:42.745Z,95.30
2018-11-27T22:58:10.380Z,95.30
2018-11-27T23:00:43.839Z,95.30
2018-11-27T23:03:11.477Z,95.40
2018-11-27T23:05:39.134Z,95.50
2018-11-27T23:08:06.856Z,95.30
2018-11-27T23:10:35.941Z,95.30
2018-11-27T23:13:03.775Z,95.30
2018-11-27T23:15:31.405Z,95.20
2018-11-27T23:17:59.056Z,95.40
2018-11-27T23:20:26.723Z,95.50
2018-11-27T23:22:54.389Z,95.30
2018-11-27T23:25:21.995Z,95.50
2018-11-27T23:27:49.661Z,95.40
2018-11-27T23:30:20.877Z,95.50
2018-11-27T23:32:48.634Z,95.50
2018-11-27T23:35:16.315Z,95.60
2018-11-27T23:37:43.957Z,95.70
2018-11-27T23:40:12.841Z,95.70
2018-11-27T23:42:40.820Z,95.40
2018-11-27T23:45:12.345Z,95.50
2018-11-27T23:47:40.051Z,95.30
2018-11-27T23:50:09.183Z,95.30
2018-11-27T23:52:36.839Z,95.40
2018-11-27T23:55:05.584Z,95.40
2018-11-27T23:57:33.201Z,95.50
